Airfield :
LOGIN :

Register | Disclaimer

   EN    FR    IT 

 










Legend :    VFR   Marginal VFR   IFR   Intensive IFR   Very Intensive IFR
Visi :
Ceiling :
>= 8 km
>= 3000ft
5 to 8 km
1000 to 3000 ft
1500m to 5 km
500 to 1000 ft
800 to 1500m
200 to 500 ft
< 800m
< 200 ft
Symbols :   Thunderstorms  Fog  Heavy snow  Heavy precipitations  Wind > 20 kt
SIGMETs :     Misc.  Thunderstorms  Icing  Turbulence  Mountain Waves  Volcanic Ashes






- Airport Elevation : 604 ft
- IATA code : LCJ


EPLL - Lodz

CURRENT METAR :
  • 250700Z 10004KT 050V160 CAVOK 16/15 Q1002

EXPIRED METARs :
  • 250630Z 10005KT 070V140 7000 NSC 15/14 Q1002
  • 250600Z 10004KT 070V150 5000 BR NSC 14/14 Q1002
  • 250530Z 09006KT 3900 MIFG BR NSC 14/13 Q1002
  • 250500Z 09004KT 4000 MIFG BR NSC 13/13 Q1003
  • 250430Z 09003KT 050V130 3000 MIFG BR NSC 13/13 Q1003

TAF TAF EPLL
Valid from the 25 at 06:00 until the 26 at 06:00 UTC


250530Z 2506/2606 VRB02KT CAVOK
BECMG 2506/2509 14012KT
PROB40
TEMPO 2515/2521 VRB15G25KT 3000 TSRA BKN020CB
PROB40 2600/2606 3000 BR BKN005



MET'MAP, your aeronautical weather chart ! - Copyright ORBIFLY December 2007 - Disclaimer

ORBIFLY MET'MAP TEAM :

Programming & Development : Alexandra Zaïnal
Concept & original design : Baudouin d'Aumeries
Assistance for programming : Marc-Olivier Méhu
Technical & hardware support : Manuel Goepfert

Contact : metmap@orbifly.com




SOURCES & CREDITS :

   NOAA